Time;durP1;ratioP1;P1;durP2;ratioP2;P2;SDS_P1;SDS_P2;PMS_P1;PMS_P2;Temp;Humidity;BMP_temperature;BMP_pressure;BME280_temperature;BME280_humidity;BME280_pressure;Samples;Min_cycle;Max_cycle;Signal;HPM_P1;HPM_P2
2023/03/16 00:00:41;;;;;;;8.97;4.50;;;;;;;4.41;76.24;101602.78;5264718;28;20041;-65
2023/03/16 00:03:18;;;;;;;13.07;5.95;;;;;;;4.40;76.73;101603.63;5265011;28;20499;-65
2023/03/16 00:05:52;;;;;;;9.80;5.07;;;;;;;4.39;76.79;101601.88;5265015;28;20056;-66
2023/03/16 00:08:23;;;;;;;8.65;5.22;;;;;;;4.39;77.24;101591.56;5265273;28;20036;-65
2023/03/16 00:10:54;;;;;;;8.77;5.10;;;;;;;4.37;77.28;101598.41;5264963;28;20083;-65
2023/03/16 00:13:26;;;;;;;6.70;4.87;;;;;;;4.37;77.30;101591.50;5264844;28;20116;-66
2023/03/16 00:16:03;;;;;;;10.30;5.97;;;;;;;4.32;77.93;101587.94;5264699;28;20037;-66
2023/03/16 00:18:37;;;;;;;10.73;4.93;;;;;;;4.33;77.76;101589.69;5264741;28;20052;-65
2023/03/16 00:21:11;;;;;;;7.45;5.32;;;;;;;4.35;77.68;101582.88;5264599;28;20383;-65
2023/03/16 00:23:42;;;;;;;9.82;5.50;;;;;;;4.32;77.83;101580.19;5247341;28;20091;-65
2023/03/16 00:26:14;;;;;;;8.90;5.50;;;;;;;4.38;77.49;101584.66;5264665;28;20029;-65
2023/03/16 00:28:45;;;;;;;7.70;5.20;;;;;;;4.31;78.02;101577.59;5265018;28;20036;-67
2023/03/16 00:31:16;;;;;;;8.03;5.77;;;;;;;4.31;78.33;101581.03;5264503;28;20040;-66
2023/03/16 00:33:48;;;;;;;8.13;5.53;;;;;;;4.33;78.26;101565.56;5264443;28;20033;-64
2023/03/16 00:36:21;;;;;;;6.53;5.07;;;;;;;4.29;78.40;101572.38;5264572;28;20542;-64
2023/03/16 00:38:53;;;;;;;7.50;5.03;;;;;;;4.29;78.28;101567.22;5263649;28;20032;-66
2023/03/16 00:41:24;;;;;;;10.83;5.60;;;;;;;4.28;78.77;101567.19;5264380;28;20476;-66
2023/03/16 00:43:55;;;;;;;7.67;5.13;;;;;;;4.29;79.06;101568.94;5264767;28;20032;-66
2023/03/16 00:46:27;;;;;;;8.27;4.73;;;;;;;4.31;78.36;101569.84;5265001;28;20080;-64
2023/03/16 00:48:58;;;;;;;12.20;5.53;;;;;;;4.29;78.85;101558.59;5246364;28;20095;-66
2023/03/16 00:51:32;;;;;;;11.47;5.53;;;;;;;4.32;78.38;101551.81;5263987;28;20041;-65
2023/03/16 00:54:04;;;;;;;10.32;5.30;;;;;;;4.27;78.99;101555.13;5263961;28;20101;-65
2023/03/16 00:56:35;;;;;;;8.30;5.93;;;;;;;4.28;78.89;101556.84;5263976;28;20460;-65
2023/03/16 00:59:07;;;;;;;7.87;5.70;;;;;;;4.26;79.32;101549.06;5264322;28;20029;-66
2023/03/16 01:01:39;;;;;;;8.20;5.20;;;;;;;4.28;78.98;101549.09;5263889;28;20041;-65
2023/03/16 01:04:10;;;;;;;7.13;5.13;;;;;;;4.27;79.02;101539.63;5264136;28;20496;-65
2023/03/16 01:06:41;;;;;;;9.33;4.90;;;;;;;4.27;79.13;101534.47;5264378;28;20037;-65
2023/03/16 01:09:13;;;;;;;8.47;5.40;;;;;;;4.26;79.22;101531.00;5262395;28;20083;-66
2023/03/16 01:11:48;;;;;;;9.65;5.22;;;;;;;4.27;79.55;101525.03;5263662;28;20029;-66
2023/03/16 01:14:20;;;;;;;8.00;5.65;;;;;;;4.25;79.51;101528.38;5264026;28;20083;-65
2023/03/16 01:16:52;;;;;;;9.98;5.30;;;;;;;4.27;79.56;101519.00;5263532;28;20029;-65
2023/03/16 01:19:23;;;;;;;8.60;5.13;;;;;;;4.23;79.57;101510.28;5263397;28;20040;-65
2023/03/16 01:21:55;;;;;;;8.70;5.30;;;;;;;4.26;79.70;101505.19;5264050;28;20060;-65
2023/03/16 01:24:27;;;;;;;13.70;5.90;;;;;;;4.26;79.70;101497.44;5263408;28;20095;-65
2023/03/16 01:26:58;;;;;;;7.88;5.15;;;;;;;4.30;79.65;101500.97;5263787;28;20041;-65
2023/03/16 01:29:30;;;;;;;7.83;5.10;;;;;;;4.30;79.69;101494.13;5263622;28;20097;-65
2023/03/16 01:32:03;;;;;;;7.82;5.65;;;;;;;4.32;79.77;101489.88;5262543;28;20036;-65
2023/03/16 01:34:35;;;;;;;6.82;5.28;;;;;;;4.34;79.52;101489.91;5263248;28;20029;-65
2023/03/16 01:37:06;;;;;;;10.23;6.30;;;;;;;4.30;79.72;101477.75;5263347;28;20040;-65
2023/03/16 01:39:37;;;;;;;7.80;5.23;;;;;;;4.32;79.77;101476.97;5263190;28;20098;-65
2023/03/16 01:42:09;;;;;;;8.37;5.37;;;;;;;4.31;79.92;101493.25;5262786;28;20033;-66
2023/03/16 01:44:56;;;;;;;7.67;5.33;;;;;;;4.31;79.97;101482.94;5262857;28;20497;-65
2023/03/16 01:47:28;;;;;;;7.55;4.40;;;;;;;4.30;79.76;101488.97;5263018;28;20467;-65
2023/03/16 01:49:59;;;;;;;7.47;4.87;;;;;;;4.30;80.36;101490.66;5261971;28;20041;-65
2023/03/16 01:52:34;;;;;;;12.47;5.60;;;;;;;4.30;79.95;101483.81;5262747;28;20380;-65
2023/03/16 01:55:08;;;;;;;8.05;4.63;;;;;;;4.27;80.46;101477.69;5262810;28;20029;-65
2023/03/16 01:57:42;;;;;;;8.30;4.93;;;;;;;4.31;79.95;101485.53;5262844;28;20024;-65
2023/03/16 02:00:19;;;;;;;8.50;5.28;;;;;;;4.28;80.49;101472.56;5262734;28;20033;-65
2023/03/16 02:02:57;;;;;;;8.80;5.25;;;;;;;4.32;80.16;101483.84;5262674;28;20025;-65
2023/03/16 02:05:37;;;;;;;8.77;5.85;;;;;;;4.33;80.28;101473.56;5263356;28;20043;-65
2023/03/16 02:08:11;;;;;;;7.18;4.47;;;;;;;4.34;80.02;101474.41;5263143;28;20108;-65
2023/03/16 02:10:44;;;;;;;6.47;5.30;;;;;;;4.36;79.83;101468.47;5263096;28;20032;-65
2023/03/16 02:13:15;;;;;;;;;;;;;;;4.41;79.56;101473.72;5262984;28;20029;-65
2023/03/16 02:15:46;;;;;;;7.38;4.55;;;;;;;4.36;79.81;101468.47;5261328;28;19912;-66
2023/03/16 02:18:21;;;;;;;8.43;5.67;;;;;;;4.38;79.78;101461.63;5263086;28;20043;-66
2023/03/16 02:21:18;;;;;;;8.35;4.80;;;;;;;4.35;80.40;101464.13;5262445;28;20108;-65
2023/03/16 02:23:50;;;;;;;9.00;4.72;;;;;;;4.33;80.72;101458.06;5262460;28;20044;-66
2023/03/16 02:26:28;;;;;;;6.63;4.78;;;;;;;4.33;81.05;101464.91;5262083;28;20469;-65
2023/03/16 02:29:43;;;;;;;7.25;5.05;;;;;;;4.32;81.52;101461.47;5262384;28;20055;-66
2023/03/16 02:32:16;;;;;;;8.68;5.57;;;;;;;4.29;81.85;101456.22;5202047;28;20036;-65
2023/03/16 02:34:47;;;;;;;;;;;;;;;4.30;82.16;101454.50;5219128;28;20085;-65
2023/03/16 02:37:20;;;;;;;7.65;4.70;;;;;;;4.26;82.82;101456.16;5244911;28;19913;-66
2023/03/16 02:39:52;;;;;;;8.43;5.05;;;;;;;4.25;83.54;101448.38;5262245;28;20025;-65
2023/03/16 02:42:25;;;;;;;8.83;5.90;;;;;;;4.24;84.49;101457.84;5262305;28;20083;-65
2023/03/16 02:44:59;;;;;;;9.20;4.97;;;;;;;4.21;85.01;101450.03;5262000;28;20110;-65
2023/03/16 02:47:33;;;;;;;11.88;5.30;;;;;;;4.20;85.13;101453.41;5262528;28;20491;-66
2023/03/16 02:50:05;;;;;;;10.13;5.25;;;;;;;4.19;85.07;101447.41;5261837;28;20029;-65
2023/03/16 02:52:38;;;;;;;6.45;4.97;;;;;;;4.22;85.64;101454.34;5262683;28;20372;-65
2023/03/16 02:55:09;;;;;;;9.23;5.78;;;;;;;4.19;85.23;101441.38;5262165;28;20128;-65
2023/03/16 02:57:41;;;;;;;7.33;5.37;;;;;;;4.20;85.78;101441.41;5262155;28;20108;-65
2023/03/16 03:00:18;;;;;;;6.83;4.97;;;;;;;4.19;86.02;101436.22;5262136;28;20500;-65
2023/03/16 03:02:51;;;;;;;7.93;4.95;;;;;;;4.18;86.01;101432.75;5265717;28;20473;-65
2023/03/16 03:05:23;;;;;;;7.55;4.70;;;;;;;4.18;86.35;101437.91;5264826;28;20033;-66
2023/03/16 03:07:54;;;;;;;9.83;5.60;;;;;;;4.20;86.05;101423.34;5265761;28;20472;-65
2023/03/16 03:10:26;;;;;;;9.00;4.77;;;;;;;4.19;86.09;101431.06;5265931;28;20345;-65
2023/03/16 03:12:58;;;;;;;9.17;5.20;;;;;;;4.19;85.59;101433.63;5265865;28;20542;-65
2023/03/16 03:15:29;;;;;;;8.83;5.33;;;;;;;4.19;85.62;101431.06;5266135;28;20102;-65
2023/03/16 03:18:01;;;;;;;7.63;4.63;;;;;;;4.18;85.61;101430.16;5265879;28;20051;-66
2023/03/16 03:20:32;;;;;;;9.43;5.15;;;;;;;4.19;85.65;101423.31;5265789;28;20040;-65
2023/03/16 03:23:04;;;;;;;11.23;5.50;;;;;;;4.14;85.63;101424.91;5265513;28;20029;-66
2023/03/16 03:25:35;;;;;;;7.63;4.53;;;;;;;4.18;85.49;101432.75;5265637;28;20086;-65
2023/03/16 03:28:07;;;;;;;6.37;4.73;;;;;;;4.15;85.40;101424.06;5265771;28;20489;-65
2023/03/16 03:30:39;;;;;;;7.93;5.03;;;;;;;4.14;85.35;101422.34;5265554;28;20033;-65
2023/03/16 03:33:11;;;;;;;8.67;5.77;;;;;;;4.13;85.42;101423.16;5264344;28;20037;-65
2023/03/16 03:35:43;;;;;;;9.45;4.75;;;;;;;4.11;85.60;101425.72;5266157;28;20483;-65
2023/03/16 03:38:14;;;;;;;7.70;5.50;;;;;;;4.06;85.83;101414.41;5265520;28;20025;-65
2023/03/16 03:40:49;;;;;;;7.70;4.50;;;;;;;4.07;85.70;101413.56;5266177;28;20052;-66
2023/03/16 03:43:20;;;;;;;10.52;4.50;;;;;;;4.09;85.61;101411.00;5265283;28;20025;-65
2023/03/16 03:45:56;;;;;;;7.83;4.80;;;;;;;4.11;85.41;101412.81;5265678;28;20045;-65
2023/03/16 03:48:28;;;;;;;7.93;4.10;;;;;;;4.10;85.63;101418.78;5265496;28;20116;-65
2023/03/16 03:50:59;;;;;;;7.23;4.23;;;;;;;4.10;85.28;101416.22;5265100;28;20146;-65
2023/03/16 03:53:31;;;;;;;6.37;4.37;;;;;;;4.11;85.09;101415.38;5265404;28;20037;-65
2023/03/16 03:56:03;;;;;;;11.87;5.03;;;;;;;4.16;84.58;101416.34;5265265;28;20040;-65
2023/03/16 03:58:34;;;;;;;7.13;4.43;;;;;;;4.15;84.84;101417.22;5265300;28;20469;-65
2023/03/16 04:01:06;;;;;;;7.27;4.23;;;;;;;4.14;84.30;101405.13;5265062;28;20040;-65
2023/03/16 04:03:37;;;;;;;7.27;4.70;;;;;;;4.16;84.40;101397.44;5265234;28;20033;-65
2023/03/16 04:06:08;;;;;;;9.17;4.50;;;;;;;4.16;84.74;101403.47;5265125;28;20154;-65
2023/03/16 04:08:40;;;;;;;8.87;4.30;;;;;;;4.16;84.98;101398.28;5265031;28;20029;-65
2023/03/16 04:11:11;;;;;;;5.93;4.00;;;;;;;4.15;85.11;101393.09;5264913;28;20040;-65
2023/03/16 04:13:42;;;;;;;7.73;4.57;;;;;;;4.16;85.01;101387.97;5263914;28;20033;-65
2023/03/16 04:16:15;;;;;;;7.40;3.93;;;;;;;4.14;85.47;101387.06;5264652;28;20028;-65
2023/03/16 04:18:46;;;;;;;;;;;;;;;4.18;84.93;101388.88;5264983;28;20090;-65
2023/03/16 04:21:18;;;;;;;6.97;4.15;;;;;;;4.14;84.88;101387.06;5264612;28;19913;-65
2023/03/16 04:23:53;;;;;;;5.90;4.17;;;;;;;4.15;84.62;101390.53;5265023;28;20050;-66
2023/03/16 04:26:24;;;;;;;6.63;4.72;;;;;;;4.15;84.72;101388.84;5264738;28;20052;-65
2023/03/16 04:28:56;;;;;;;12.87;4.47;;;;;;;4.15;84.86;101391.41;5264427;28;20033;-65
2023/03/16 04:31:28;;;;;;;6.97;4.32;;;;;;;4.16;84.85;101387.97;5264058;28;20533;-65
2023/03/16 04:34:01;;;;;;;6.78;3.72;;;;;;;4.17;84.94;101379.41;5264224;28;20041;-65
2023/03/16 04:36:32;;;;;;;8.73;4.50;;;;;;;4.19;84.85;101382.03;5264279;28;20028;-65
2023/03/16 04:39:05;;;;;;;8.97;3.83;;;;;;;4.22;84.57;101389.84;5264153;28;20036;-65
2023/03/16 04:41:36;;;;;;;7.97;4.00;;;;;;;4.27;84.85;101389.94;5264122;28;20041;-66
2023/03/16 04:44:08;;;;;;;7.70;3.73;;;;;;;4.26;84.33;101383.91;5264088;28;20074;-65
2023/03/16 04:46:39;;;;;;;7.90;4.43;;;;;;;4.28;84.41;101377.09;5264715;28;20095;-65
2023/03/16 04:49:11;;;;;;;9.13;4.10;;;;;;;4.29;84.39;101377.94;5263745;28;20162;-65
2023/03/16 04:51:42;;;;;;;8.57;4.57;;;;;;;4.29;84.85;101376.22;5263933;28;20064;-65
2023/03/16 04:54:14;;;;;;;7.80;4.30;;;;;;;4.32;84.43;101378.88;5264300;28;20041;-65
2023/03/16 04:56:45;;;;;;;7.20;4.10;;;;;;;4.32;85.05;101375.44;5263604;28;20082;-65
2023/03/16 04:59:17;;;;;;;7.57;4.07;;;;;;;4.35;85.08;101378.09;5264641;28;20378;-65
2023/03/16 05:01:48;;;;;;;10.57;4.37;;;;;;;4.32;85.80;101375.44;5263511;28;20040;-65
2023/03/16 05:04:20;;;;;;;6.57;3.60;;;;;;;4.28;85.45;101374.50;5263301;28;20035;-66
2023/03/16 05:06:52;;;;;;;8.73;3.58;;;;;;;4.28;86.10;101368.44;5263970;28;20031;-65
2023/03/16 05:09:24;;;;;;;6.93;3.77;;;;;;;4.26;86.22;101377.88;5263552;28;20025;-65
2023/03/16 05:11:56;;;;;;;8.63;4.03;;;;;;;4.29;86.90;101365.91;5263520;28;20032;-65
2023/03/16 05:14:27;;;;;;;4.87;3.70;;;;;;;4.26;86.95;101363.25;5263449;28;20491;-65
2023/03/16 05:16:58;;;;;;;8.40;3.80;;;;;;;4.28;86.96;101358.13;5263584;28;20059;-65
2023/03/16 05:19:30;;;;;;;9.57;3.90;;;;;;;4.28;87.11;101356.44;5263362;28;20035;-64
2023/03/16 05:22:01;;;;;;;6.07;3.27;;;;;;;4.31;87.52;101359.06;5263406;28;20044;-64
2023/03/16 05:24:33;;;;;;;7.13;3.93;;;;;;;4.31;87.41;101363.34;5262397;28;20036;-65
2023/03/16 05:27:04;;;;;;;7.03;3.30;;;;;;;4.34;87.17;101363.44;5263317;28;20073;-64
2023/03/16 05:29:35;;;;;;;8.00;3.97;;;;;;;4.30;87.55;101359.91;5263610;28;20037;-64
2023/03/16 05:32:07;;;;;;;6.53;3.73;;;;;;;4.33;87.49;101352.25;5262970;28;20033;-64
2023/03/16 05:34:38;;;;;;;7.63;3.37;;;;;;;4.34;87.79;101353.97;5262890;28;20025;-64
2023/03/16 05:37:10;;;;;;;7.37;3.37;;;;;;;4.33;87.84;101346.19;5262535;28;20024;-64
2023/03/16 05:39:42;;;;;;;6.53;3.60;;;;;;;4.36;87.61;101339.41;5263188;28;20345;-64
2023/03/16 05:42:13;;;;;;;8.13;3.60;;;;;;;4.39;87.36;101343.75;5262760;28;20039;-64
2023/03/16 05:44:45;;;;;;;7.73;3.87;;;;;;;4.41;86.77;101336.03;5262450;28;20536;-63
2023/03/16 05:47:16;;;;;;;5.63;3.67;;;;;;;4.42;86.84;101337.78;5263381;28;20369;-64
2023/03/16 05:49:47;;;;;;;6.77;3.93;;;;;;;4.44;87.03;101330.94;5263119;28;20028;-65
2023/03/16 05:52:19;;;;;;;10.77;4.57;;;;;;;4.45;86.77;101330.97;5262687;28;20041;-64
2023/03/16 05:54:50;;;;;;;7.00;3.83;;;;;;;4.46;86.50;101331.84;5262843;28;20029;-64
2023/03/16 05:57:22;;;;;;;6.97;3.60;;;;;;;4.48;86.21;101327.59;5262891;28;20033;-64
2023/03/16 05:59:53;;;;;;;7.07;3.50;;;;;;;4.52;85.73;101329.38;5262527;28;20025;-64
2023/03/16 06:02:25;;;;;;;7.00;3.20;;;;;;;4.51;85.94;101327.66;5263105;28;20033;-64
2023/03/16 06:04:58;;;;;;;7.00;3.60;;;;;;;4.50;85.90;101337.09;5262301;28;20448;-64
2023/03/16 06:07:29;;;;;;;5.13;3.38;;;;;;;4.53;85.87;101333.72;5262262;28;20570;-64
2023/03/16 06:10:01;;;;;;;7.63;3.40;;;;;;;4.54;85.57;101330.28;5260727;28;20029;-64
2023/03/16 06:12:36;;;;;;;8.93;4.07;;;;;;;4.53;85.81;101329.41;5262066;28;20051;-63
2023/03/16 06:15:09;;;;;;;9.07;3.50;;;;;;;4.56;85.73;101331.19;5262107;28;20025;-63
2023/03/16 06:17:40;;;;;;;5.80;3.42;;;;;;;4.59;85.47;101331.28;5262190;28;20425;-64
2023/03/16 06:20:12;;;;;;;6.40;3.17;;;;;;;4.64;85.26;101332.22;5244390;28;20119;-64
2023/03/16 06:22:44;;;;;;;6.57;3.83;;;;;;;4.68;84.66;101328.84;5262111;28;20119;-64
2023/03/16 06:25:15;;;;;;;6.73;4.20;;;;;;;4.71;84.39;101331.50;5262437;28;20148;-65
2023/03/16 06:27:48;;;;;;;9.30;3.63;;;;;;;4.73;84.37;101341.84;5262391;28;20029;-64
2023/03/16 06:30:20;;;;;;;6.97;3.75;;;;;;;4.72;84.58;101335.84;5262027;28;20037;-64
2023/03/16 06:32:51;;;;;;;10.30;3.60;;;;;;;4.73;85.80;101335.00;5262161;28;20029;-64
2023/03/16 06:35:23;;;;;;;6.23;3.57;;;;;;;4.71;86.63;101331.50;5262222;28;20154;-65
2023/03/16 06:37:54;;;;;;;6.57;3.70;;;;;;;4.67;87.20;101324.53;5261139;28;20033;-64
2023/03/16 06:40:25;;;;;;;8.87;4.03;;;;;;;4.60;87.70;101317.50;5262033;28;20453;-64
2023/03/16 06:42:57;;;;;;;9.07;4.00;;;;;;;4.52;88.81;101312.19;5262435;28;20025;-64
2023/03/16 06:45:28;;;;;;;8.33;4.13;;;;;;;4.54;89.50;101314.78;5261769;28;20060;-65
2023/03/16 06:48:00;;;;;;;9.03;4.03;;;;;;;4.61;89.49;101308.06;5262089;28;20040;-65
2023/03/16 06:50:31;;;;;;;7.70;4.07;;;;;;;4.67;88.74;101315.91;5261829;28;20448;-65
2023/03/16 06:53:02;;;;;;;9.23;3.63;;;;;;;4.75;87.57;101316.97;5261854;28;20090;-65
2023/03/16 06:55:34;;;;;;;6.33;3.80;;;;;;;4.81;87.25;101318.78;5262326;28;20457;-65
2023/03/16 06:58:05;;;;;;;9.10;4.03;;;;;;;4.86;87.51;101319.72;5262225;28;20025;-65
2023/03/16 07:00:37;;;;;;;6.70;3.90;;;;;;;4.93;87.20;101324.19;5261757;28;20073;-65
2023/03/16 07:03:08;;;;;;;7.23;4.27;;;;;;;4.96;86.33;101319.09;5261873;28;20083;-65
2023/03/16 07:05:39;;;;;;;6.80;3.70;;;;;;;5.01;85.46;101324.34;5261804;28;20068;-65
2023/03/16 07:08:11;;;;;;;7.03;4.50;;;;;;;5.06;85.58;101318.41;5261854;28;20116;-65
2023/03/16 07:10:42;;;;;;;8.43;3.77;;;;;;;5.13;86.37;101318.50;5261395;28;20452;-65
2023/03/16 07:13:13;;;;;;;9.07;3.70;;;;;;;5.19;84.55;101318.63;5262015;28;20143;-64
2023/03/16 07:15:45;;;;;;;10.30;4.20;;;;;;;5.21;82.87;101304.88;5261522;28;20111;-63
2023/03/16 07:18:17;;;;;;;5.47;3.37;;;;;;;5.27;83.18;101304.13;5261605;28;20029;-64
2023/03/16 07:20:48;;;;;;;9.07;3.90;;;;;;;5.32;82.74;101296.44;5262001;28;20029;-64
2023/03/16 07:23:20;;;;;;;8.43;3.40;;;;;;;5.36;82.86;101305.97;5261563;28;20037;-64
2023/03/16 07:25:51;;;;;;;5.97;3.40;;;;;;;5.38;82.30;101289.66;5261408;28;20025;-64
2023/03/16 07:28:23;;;;;;;9.70;3.87;;;;;;;5.50;82.25;101294.16;5262201;28;20025;-64
2023/03/16 07:30:54;;;;;;;5.97;3.60;;;;;;;5.60;81.96;101300.34;5261483;28;20030;-64
2023/03/16 07:33:25;;;;;;;4.97;3.27;;;;;;;5.67;81.88;101289.25;5261488;28;20570;-64
2023/03/16 07:35:57;;;;;;;5.23;3.10;;;;;;;5.72;81.25;101297.09;5261359;28;20373;-64
2023/03/16 07:38:31;;;;;;;7.47;4.30;;;;;;;5.71;79.35;101298.78;5243836;28;20555;-64
2023/03/16 07:41:02;;;;;;;7.20;3.60;;;;;;;5.72;79.81;101305.72;5243766;28;20029;-65
2023/03/16 07:43:34;;;;;;;7.07;3.30;;;;;;;5.74;79.18;101306.59;5261384;28;20043;-65
2023/03/16 07:46:05;;;;;;;11.83;3.90;;;;;;;5.78;79.32;101305.81;5261794;28;20067;-64
2023/03/16 07:48:37;;;;;;;5.97;3.37;;;;;;;5.85;79.16;101306.78;5262144;28;20021;-64
2023/03/16 07:51:10;;;;;;;5.87;3.23;;;;;;;5.85;77.73;101297.28;5265128;28;20033;-65
2023/03/16 07:53:41;;;;;;;8.57;3.60;;;;;;;5.90;78.08;101304.25;5264975;28;20033;-64
2023/03/16 07:56:13;;;;;;;6.97;4.10;;;;;;;5.97;78.09;101306.09;5247547;28;20029;-64
2023/03/16 07:58:44;;;;;;;5.60;3.43;;;;;;;6.07;77.58;101296.75;5264995;28;20021;-64
2023/03/16 08:01:15;;;;;;;6.80;3.73;;;;;;;6.12;76.75;101300.31;5265447;28;20033;-64
2023/03/16 08:03:47;;;;;;;8.67;3.60;;;;;;;6.14;75.98;101303.78;5265463;28;20029;-64
2023/03/16 08:06:18;;;;;;;8.37;4.20;;;;;;;6.19;76.32;101297.78;5264580;28;20037;-64
2023/03/16 08:08:50;;;;;;;5.80;3.50;;;;;;;6.26;75.08;101308.22;5264815;28;20060;-65
2023/03/16 08:11:24;;;;;;;6.47;3.80;;;;;;;6.40;74.63;101314.47;5264344;28;20108;-64
2023/03/16 08:13:58;;;;;;;8.57;4.10;;;;;;;6.49;73.79;101305.97;5264525;28;20107;-65
2023/03/16 08:16:30;;;;;;;7.88;3.75;;;;;;;6.55;73.40;101300.81;5264247;28;20045;-64
2023/03/16 08:19:02;;;;;;;7.38;4.57;;;;;;;6.66;73.60;101312.19;5264237;28;20029;-64
2023/03/16 08:21:35;;;;;;;7.38;3.85;;;;;;;6.69;72.21;101312.22;5265259;28;20373;-64
2023/03/16 08:24:06;;;;;;;8.77;4.07;;;;;;;6.94;72.86;101309.94;5264444;28;20064;-64
2023/03/16 08:26:38;;;;;;;8.00;3.37;;;;;;;7.01;70.30;101292.72;5264604;28;20437;-65
2023/03/16 08:29:09;;;;;;;9.33;4.67;;;;;;;7.00;70.66;101296.16;5263244;28;20112;-65
2023/03/16 08:31:41;;;;;;;8.97;4.10;;;;;;;6.96;69.73;101313.41;5264600;28;20591;-64
2023/03/16 08:34:14;;;;;;;10.73;4.30;;;;;;;6.94;70.43;101305.59;5264296;28;20036;-64
2023/03/16 08:36:46;;;;;;;11.52;3.50;;;;;;;6.93;69.83;101308.19;5264289;28;20029;-64
2023/03/16 08:39:17;;;;;;;8.63;4.63;;;;;;;7.07;70.58;101310.94;5264307;28;20035;-65
2023/03/16 08:41:48;;;;;;;6.93;3.27;;;;;;;6.97;68.88;101306.47;5264193;28;20068;-64
2023/03/16 08:44:22;;;;;;;9.23;4.10;;;;;;;6.97;69.06;101298.72;5264096;28;20037;-64
2023/03/16 08:46:53;;;;;;;5.80;3.10;;;;;;;7.03;68.90;101299.63;5264577;28;20455;-64
2023/03/16 08:49:26;;;;;;;8.83;3.57;;;;;;;7.12;69.46;101304.06;5263905;28;20155;-64
2023/03/16 08:51:59;;;;;;;8.35;3.58;;;;;;;7.09;69.07;101298.84;5264329;28;20431;-64
2023/03/16 08:54:33;;;;;;;6.50;3.38;;;;;;;7.09;68.61;101301.44;5263757;28;20040;-64
2023/03/16 08:57:05;;;;;;;7.85;3.80;;;;;;;7.14;68.36;101297.16;5264089;28;20499;-64
2023/03/16 08:59:36;;;;;;;5.23;3.23;;;;;;;7.21;67.64;101298.06;5263208;28;20126;-65
2023/03/16 09:02:12;;;;;;;9.33;4.03;;;;;;;7.27;66.82;101290.34;5262307;28;20163;-64
2023/03/16 09:04:44;;;;;;;5.75;3.33;;;;;;;7.46;66.45;101286.19;5263272;28;20274;-64
2023/03/16 09:07:17;;;;;;;8.70;3.47;;;;;;;7.66;65.87;101275.97;5263889;28;20368;-64
2023/03/16 09:09:49;;;;;;;;;;;;;;;8.02;66.71;101277.06;5262743;28;20036;-64
2023/03/16 09:12:21;;;;;;;5.65;3.33;;;;;;;8.03;64.91;101276.19;5263426;28;19978;-64
2023/03/16 09:14:53;;;;;;;7.77;3.13;;;;;;;8.01;64.20;101283.97;5263414;28;20114;-64
2023/03/16 09:17:24;;;;;;;5.97;3.25;;;;;;;8.15;63.76;101291.00;5263438;28;20143;-64
2023/03/16 09:19:56;;;;;;;8.03;3.03;;;;;;;8.27;62.39;101282.38;5263031;28;20112;-65
2023/03/16 09:22:27;;;;;;;8.37;3.77;;;;;;;8.49;61.94;101279.06;5263646;28;20413;-64
2023/03/16 09:24:59;;;;;;;7.30;3.23;;;;;;;8.79;61.69;101284.34;5263271;28;20040;-64
2023/03/16 09:27:35;;;;;;;7.57;3.27;;;;;;;8.94;59.91;101274.84;5263312;28;20486;-65
2023/03/16 09:30:08;;;;;;;11.27;3.42;;;;;;;9.18;59.45;101278.34;5263421;28;20121;-64
2023/03/16 09:32:39;;;;;;;11.10;3.03;;;;;;;9.28;59.08;101266.22;5262831;28;20207;-65
2023/03/16 09:35:10;;;;;;;7.67;3.20;;;;;;;9.27;58.18;101267.06;5263011;28;20513;-64
2023/03/16 09:37:42;;;;;;;4.90;2.50;;;;;;;9.26;57.90;101271.41;5263015;28;20036;-64
2023/03/16 09:40:27;;;;;;;9.33;3.87;;;;;;;9.09;58.12;101262.72;5262862;28;20029;-64
2023/03/16 09:43:09;;;;;;;7.68;3.00;;;;;;;8.93;58.05;101275.72;5262931;28;20091;-64
2023/03/16 09:45:54;;;;;;;11.15;3.33;;;;;;;8.99;58.73;101276.59;5262429;28;20053;-64
2023/03/16 09:48:29;;;;;;;7.00;3.13;;;;;;;9.17;58.33;101267.94;5262811;28;20029;-64
2023/03/16 09:51:03;;;;;;;5.28;3.22;;;;;;;9.95;54.74;101267.00;5263341;28;20056;-64
2023/03/16 09:53:39;;;;;;;4.88;2.47;;;;;;;11.05;52.44;101267.41;5263282;28;20053;-64
2023/03/16 09:56:19;;;;;;;12.48;3.17;;;;;;;11.46;49.62;101266.19;5262844;28;20060;-64
2023/03/16 09:58:50;;;;;;;6.28;2.72;;;;;;;11.28;49.70;101262.00;5262664;28;20090;-65
2023/03/16 10:01:27;;;;;;;6.27;2.93;;;;;;;11.43;49.59;101264.50;5244451;28;20037;-64
2023/03/16 10:04:10;;;;;;;5.55;2.50;;;;;;;11.55;49.28;101247.84;5261189;28;20116;-65
2023/03/16 10:06:59;;;;;;;8.45;2.63;;;;;;;11.35;48.63;101239.31;5262786;28;20025;-64
2023/03/16 10:10:25;;;;;;;9.40;3.25;;;;;;;11.93;48.74;101253.56;5262826;28;20049;-64
2023/03/16 10:12:59;;;;;;;5.45;2.60;;;;;;;12.28;46.50;101242.72;5217960;28;20048;-64
2023/03/16 10:15:34;;;;;;;6.47;2.80;;;;;;;12.31;45.51;101237.44;5255647;28;20083;-64
2023/03/16 10:18:16;;;;;;;7.38;3.03;;;;;;;12.70;45.21;101236.94;5262260;28;20079;-64
2023/03/16 10:20:51;;;;;;;13.40;3.20;;;;;;;12.83;44.09;101232.38;5261593;28;20388;-64
2023/03/16 10:23:24;;;;;;;8.20;2.70;;;;;;;12.99;43.09;101227.78;5262328;28;20083;-64
2023/03/16 10:25:56;;;;;;;11.40;2.75;;;;;;;13.16;43.06;101224.91;5262263;28;20036;-64
2023/03/16 10:28:31;;;;;;;7.68;2.67;;;;;;;12.93;44.38;101237.47;5262528;28;20033;-64
2023/03/16 10:31:03;;;;;;;5.65;2.42;;;;;;;13.21;42.53;101234.41;5261995;28;20036;-64
2023/03/16 10:33:35;;;;;;;9.82;3.30;;;;;;;13.25;42.36;101240.44;5262584;28;20032;-64
2023/03/16 10:36:23;;;;;;;7.32;2.30;;;;;;;13.29;43.24;101234.28;5262399;28;20098;-64
2023/03/16 10:39:12;;;;;;;6.13;2.30;;;;;;;13.25;42.70;101236.09;5262032;28;20033;-65
2023/03/16 10:41:53;;;;;;;7.82;2.53;;;;;;;12.93;42.98;101229.63;5262146;28;20040;-64
2023/03/16 10:44:27;;;;;;;8.52;3.88;;;;;;;13.21;42.82;101234.41;5261829;28;20082;-64
2023/03/16 10:47:04;;;;;;;7.30;2.10;;;;;;;14.25;41.04;101217.66;5263169;28;20040;-64
2023/03/16 10:49:40;;;;;;;6.43;2.35;;;;;;;15.01;39.25;101216.84;5261943;28;20041;-64
2023/03/16 10:52:23;;;;;;;7.45;2.75;;;;;;;15.07;38.31;101218.44;5262085;28;20021;-64
2023/03/16 10:54:59;;;;;;;6.45;2.50;;;;;;;15.45;37.71;101213.97;5262052;28;20029;-64
2023/03/16 10:57:33;;;;;;;6.95;3.05;;;;;;;15.03;37.89;101207.16;5261980;28;20033;-64
2023/03/16 11:00:20;;;;;;;5.95;2.75;;;;;;;14.89;38.94;101212.75;5261910;28;20059;-64
2023/03/16 11:02:53;;;;;;;7.68;2.70;;;;;;;15.08;39.01;101201.78;5261998;28;20037;-64
2023/03/16 11:05:31;;;;;;;6.85;2.65;;;;;;;14.21;39.67;101195.00;5261423;28;20028;-65
2023/03/16 11:08:10;;;;;;;4.60;2.08;;;;;;;14.18;39.37;101205.56;5262114;28;20025;-64
2023/03/16 11:10:53;;;;;;;7.57;2.90;;;;;;;14.14;39.74;101199.53;5243785;28;20029;-64
2023/03/16 11:13:33;;;;;;;6.70;2.50;;;;;;;14.97;39.44;101185.44;5261970;28;20353;-64
2023/03/16 11:16:22;;;;;;;4.13;2.00;;;;;;;15.22;37.76;101176.03;5261704;28;20025;-64
2023/03/16 11:19:04;;;;;;;4.75;2.10;;;;;;;15.23;37.48;101171.66;5262538;28;20021;-66
2023/03/16 11:22:11;;;;;;;5.13;1.98;;;;;;;16.26;36.77;101170.56;5262474;28;20037;-64
2023/03/16 11:25:01;;;;;;;5.05;2.30;;;;;;;15.92;36.48;101167.16;5263696;28;20488;-64
2023/03/16 11:27:48;;;;;;;7.53;2.25;;;;;;;15.69;36.59;101173.03;5265563;28;20075;-65
2023/03/16 11:30:37;;;;;;;3.40;1.52;;;;;;;15.08;37.55;101167.66;5264606;28;20025;-64
2023/03/16 11:33:12;;;;;;;3.92;2.13;;;;;;;14.92;38.04;101169.78;5265765;28;20055;-64
2023/03/16 11:35:59;;;;;;;11.30;2.65;;;;;;;14.77;38.66;101165.78;5265301;28;20021;-65
2023/03/16 11:38:45;;;;;;;6.45;2.30;;;;;;;14.80;38.75;101160.47;5265628;28;20484;-64
2023/03/16 11:41:31;;;;;;;3.88;1.63;;;;;;;14.82;38.64;101145.53;5265542;28;20115;-65
2023/03/16 11:44:18;;;;;;;3.40;2.03;;;;;;;14.84;38.58;101135.84;5265566;28;20037;-64
2023/03/16 11:47:03;;;;;;;5.78;2.75;;;;;;;14.79;37.74;101150.00;5265338;28;20469;-64
2023/03/16 11:49:49;;;;;;;8.45;2.10;;;;;;;14.72;38.07;101133.56;5265210;28;20064;-65
2023/03/16 11:52:39;;;;;;;6.65;2.25;;;;;;;14.85;37.67;101142.84;5265431;28;20036;-65
2023/03/16 11:55:32;;;;;;;9.27;2.72;;;;;;;14.64;38.60;101136.38;5265012;28;20041;-65
2023/03/16 11:58:22;;;;;;;4.80;2.20;;;;;;;14.63;38.09;101133.78;5263591;28;20039;-65
2023/03/16 12:01:18;;;;;;;5.38;2.10;;;;;;;14.56;38.13;101128.63;5265534;28;20071;-65
2023/03/16 12:03:57;;;;;;;5.43;1.88;;;;;;;14.71;37.93;101123.94;5265218;28;20037;-64